Time;durP1;ratioP1;P1;durP2;ratioP2;P2;SDS_P1;SDS_P2;PMS_P1;PMS_P2;Temp;Humidity;BMP_temperature;BMP_pressure;BME280_temperature;BME280_humidity;BME280_pressure;Samples;Min_cycle;Max_cycle;Signal;HPM_P1;HPM_P2
2024/01/07 00:01:35;;;;;;;20.17;14.20;;;2.50;99.90;;;;;;6140385;23;20012;-38
2024/01/07 00:04:00;;;;;;;20.98;14.50;;;2.50;99.90;;;;;;6139307;23;20020;-36
2024/01/07 00:06:26;;;;;;;19.13;13.65;;;2.50;99.90;;;;;;6137901;23;20005;-36
2024/01/07 00:08:51;;;;;;;20.08;13.32;;;2.50;99.90;;;;;;6140508;23;20020;-37
2024/01/07 00:11:17;;;;;;;19.80;12.90;;;2.40;99.90;;;;;;6139789;23;20014;-36
2024/01/07 00:13:43;;;;;;;19.13;12.35;;;2.50;99.90;;;;;;6139490;23;20081;-37
2024/01/07 00:16:08;;;;;;;17.70;12.23;;;2.50;99.90;;;;;;6139321;23;20446;-37
2024/01/07 00:18:34;;;;;;;19.23;12.88;;;2.50;99.90;;;;;;6139704;23;20008;-36
2024/01/07 00:21:00;;;;;;;16.90;12.00;;;2.50;99.90;;;;;;6138806;23;20382;-37
2024/01/07 00:23:25;;;;;;;18.42;12.82;;;2.50;99.90;;;;;;6139049;23;20306;-37
2024/01/07 00:25:51;;;;;;;16.90;11.55;;;2.50;99.90;;;;;;6139814;23;20060;-38
2024/01/07 00:28:16;;;;;;;18.08;12.45;;;2.50;99.90;;;;;;6138273;23;20433;-36
2024/01/07 00:30:42;;;;;;;17.25;13.18;;;2.50;99.90;;;;;;6139131;23;20017;-37
2024/01/07 00:33:07;;;;;;;21.40;13.80;;;2.50;99.90;;;;;;6138403;23;20006;-38
2024/01/07 00:35:33;;;;;;;19.90;13.95;;;2.50;99.90;;;;;;6138972;23;20029;-37
2024/01/07 00:38:02;;;;;;;18.70;12.43;;;2.50;99.90;;;;;;6139754;23;20096;-37
2024/01/07 00:40:27;;;;;;;23.33;15.30;;;2.50;99.90;;;;;;6139591;23;20387;-36
2024/01/07 00:42:53;;;;;;;21.65;14.02;;;2.50;99.90;;;;;;6138582;23;20033;-37
2024/01/07 00:45:21;;;;;;;21.10;14.18;;;2.50;99.90;;;;;;6139128;23;20009;-36
2024/01/07 00:47:47;;;;;;;27.55;16.77;;;2.50;99.90;;;;;;6138332;23;20056;-35
2024/01/07 00:50:13;;;;;;;29.77;17.08;;;2.50;99.90;;;;;;6138029;23;20508;-36
2024/01/07 00:52:38;;;;;;;28.77;18.25;;;2.50;99.90;;;;;;6139221;23;20437;-36
2024/01/07 00:55:06;;;;;;;28.50;17.13;;;2.50;99.90;;;;;;6138291;23;20016;-36
2024/01/07 00:57:32;;;;;;;33.75;20.25;;;2.50;99.90;;;;;;6139265;23;20010;-37
2024/01/07 00:59:58;;;;;;;28.17;17.13;;;2.50;99.90;;;;;;6138201;23;20013;-37
2024/01/07 01:02:24;;;;;;;28.30;17.88;;;2.50;99.90;;;;;;6138177;23;20479;-37
2024/01/07 01:04:49;;;;;;;25.95;16.42;;;2.50;99.90;;;;;;6138249;23;20580;-36
2024/01/07 01:07:15;;;;;;;25.92;16.60;;;2.50;99.90;;;;;;6138299;23;20750;-37
2024/01/07 01:09:40;;;;;;;26.95;16.30;;;2.50;99.90;;;;;;6137785;23;20341;-37
2024/01/07 01:12:06;;;;;;;31.40;18.58;;;2.50;99.90;;;;;;6138558;23;20045;-36
2024/01/07 01:14:31;;;;;;;28.60;17.27;;;2.50;99.90;;;;;;6138533;23;20029;-35
2024/01/07 01:16:57;;;;;;;26.00;16.13;;;2.50;99.90;;;;;;6139162;23;20053;-36
2024/01/07 01:19:24;;;;;;;27.77;16.98;;;2.50;99.90;;;;;;6139105;23;20005;-37
2024/01/07 01:21:49;;;;;;;25.25;16.10;;;2.50;99.90;;;;;;6139187;23;20029;-36
2024/01/07 01:24:15;;;;;;;27.35;16.85;;;2.50;99.90;;;;;;6137286;23;20512;-46
2024/01/07 01:26:41;;;;;;;25.98;16.27;;;2.50;99.90;;;;;;6139557;23;20028;-36
2024/01/07 01:29:06;;;;;;;21.10;14.13;;;2.50;99.90;;;;;;6137751;23;20009;-35
2024/01/07 01:31:32;;;;;;;24.90;14.95;;;2.60;99.90;;;;;;6137596;23;20104;-36
2024/01/07 01:33:57;;;;;;;22.85;14.45;;;2.60;99.90;;;;;;6138850;23;20009;-36
2024/01/07 01:36:23;;;;;;;22.08;15.10;;;2.60;99.90;;;;;;6138369;23;20488;-36
2024/01/07 01:38:49;;;;;;;19.15;13.55;;;2.60;99.90;;;;;;6138259;23;20005;-37
2024/01/07 01:41:16;;;;;;;21.98;14.30;;;2.60;99.90;;;;;;6138259;23;20018;-36
2024/01/07 01:43:41;;;;;;;20.08;12.52;;;2.70;99.90;;;;;;6138469;23;20333;-37
2024/01/07 01:46:09;;;;;;;21.25;14.05;;;2.70;99.90;;;;;;6138122;23;20009;-36
2024/01/07 01:48:36;;;;;;;21.35;14.75;;;2.70;99.90;;;;;;6140098;23;20020;-37
2024/01/07 01:51:02;;;;;;;21.70;14.95;;;2.60;99.90;;;;;;6141005;23;20922;-37
2024/01/07 01:53:29;;;;;;;21.33;14.93;;;2.60;99.90;;;;;;6140657;23;20045;-37
2024/01/07 01:55:57;;;;;;;23.63;16.42;;;2.60;99.90;;;;;;6141097;23;20221;-38
2024/01/07 01:58:24;;;;;;;25.48;16.27;;;2.60;99.90;;;;;;6140264;23;20107;-37
2024/01/07 02:00:53;;;;;;;28.10;17.13;;;2.60;99.90;;;;;;6140329;23;20456;-36
2024/01/07 02:03:19;;;;;;;26.48;18.42;;;2.50;99.90;;;;;;6140400;23;20009;-36
2024/01/07 02:05:45;;;;;;;23.17;15.85;;;2.50;99.90;;;;;;6140315;23;20022;-36
2024/01/07 02:08:11;;;;;;;25.88;16.92;;;2.50;99.90;;;;;;6140178;23;20009;-41
2024/01/07 02:10:39;;;;;;;23.40;16.15;;;2.50;99.90;;;;;;6140974;23;20022;-36
2024/01/07 02:13:07;;;;;;;21.67;14.15;;;2.50;99.90;;;;;;6139698;23;20469;-36
2024/01/07 02:15:34;;;;;;;25.25;16.58;;;2.50;99.90;;;;;;6141054;23;20005;-36
2024/01/07 02:18:00;;;;;;;24.17;14.80;;;2.50;99.90;;;;;;6141004;23;20036;-37
2024/01/07 02:20:25;;;;;;;24.60;15.98;;;2.50;99.90;;;;;;6138796;23;20021;-37
2024/01/07 02:22:51;;;;;;;26.52;17.33;;;2.40;99.90;;;;;;6140421;23;20009;-37
2024/01/07 02:25:17;;;;;;;26.67;16.50;;;2.50;99.90;;;;;;6140873;23;20013;-36
2024/01/07 02:27:42;;;;;;;24.88;16.17;;;2.50;99.90;;;;;;6135144;23;20009;-37
2024/01/07 02:30:08;;;;;;;23.67;15.40;;;2.50;99.90;;;;;;6138032;23;20021;-37
2024/01/07 02:32:35;;;;;;;23.73;15.40;;;2.50;99.90;;;;;;6140789;23;20333;-36
2024/01/07 02:35:01;;;;;;;25.60;15.40;;;2.50;99.90;;;;;;6139253;23;20005;-37
2024/01/07 02:37:27;;;;;;;25.75;16.13;;;2.50;99.90;;;;;;6140093;23;20000;-36
2024/01/07 02:39:53;;;;;;;22.60;13.30;;;2.50;99.90;;;;;;6141118;23;20010;-37
2024/01/07 02:42:18;;;;;;;16.92;12.10;;;2.40;99.90;;;;;;6138761;23;20075;-36
2024/01/07 02:44:44;;;;;;;29.27;17.73;;;2.40;99.90;;;;;;6140249;23;20474;-36
2024/01/07 02:47:09;;;;;;;26.88;16.30;;;2.40;99.90;;;;;;6140611;23;20013;-36
2024/01/07 02:49:35;;;;;;;24.50;15.15;;;2.40;99.90;;;;;;6140358;23;20006;-38
2024/01/07 02:52:00;;;;;;;25.17;15.20;;;2.40;99.90;;;;;;6140288;23;20084;-38
2024/01/07 02:54:26;;;;;;;23.45;14.80;;;2.40;99.90;;;;;;6139484;23;20096;-38
2024/01/07 02:56:52;;;;;;;22.25;15.48;;;2.40;99.90;;;;;;6140243;23;20021;-39
2024/01/07 02:59:17;;;;;;;23.00;14.73;;;2.40;99.90;;;;;;6139880;23;20009;-41
2024/01/07 03:01:43;;;;;;;28.77;17.30;;;2.40;99.90;;;;;;6138942;23;20847;-38
2024/01/07 03:04:15;;;;;;;29.58;17.75;;;2.40;99.90;;;;;;6138800;23;20027;-38
2024/01/07 03:06:40;;;;;;;28.75;17.83;;;2.40;99.90;;;;;;6140285;23;20009;-38
2024/01/07 03:09:07;;;;;;;28.02;17.65;;;2.40;99.90;;;;;;6138213;23;20385;-37
2024/01/07 03:11:33;;;;;;;30.00;18.08;;;2.30;99.90;;;;;;6139595;23;20100;-37
2024/01/07 03:13:58;;;;;;;25.27;16.40;;;2.30;99.90;;;;;;6139354;23;20076;-37
2024/01/07 03:16:25;;;;;;;22.92;14.73;;;2.30;99.90;;;;;;6138610;23;20009;-38
2024/01/07 03:18:51;;;;;;;22.63;14.88;;;2.30;99.90;;;;;;6140480;23;20084;-37
2024/01/07 03:21:23;;;;;;;22.02;14.45;;;2.30;99.90;;;;;;6139768;23;20088;-37
2024/01/07 03:23:50;;;;;;;20.63;13.27;;;2.30;99.90;;;;;;6140144;23;20005;-37
2024/01/07 03:26:18;;;;;;;24.75;15.13;;;2.40;99.90;;;;;;6140957;23;20010;-44
2024/01/07 03:28:44;;;;;;;22.60;14.93;;;2.30;99.90;;;;;;6140525;23;20001;-37
2024/01/07 03:31:13;;;;;;;20.67;13.93;;;2.40;99.90;;;;;;6138779;23;20021;-37
2024/01/07 03:33:40;;;;;;;18.50;12.73;;;2.30;99.90;;;;;;6139892;23;20009;-36
2024/01/07 03:36:10;;;;;;;19.98;12.73;;;2.30;99.90;;;;;;6138793;23;20012;-38
2024/01/07 03:38:36;;;;;;;16.27;11.75;;;2.30;99.90;;;;;;6138681;23;20009;-37
2024/01/07 03:41:02;;;;;;;18.95;12.15;;;2.30;99.90;;;;;;6139514;23;20088;-36
2024/01/07 03:43:28;;;;;;;19.67;12.65;;;2.30;99.90;;;;;;6138979;23;20001;-36
2024/01/07 03:45:54;;;;;;;17.48;12.32;;;2.40;99.90;;;;;;6139014;23;20010;-42
2024/01/07 03:48:19;;;;;;;15.15;11.15;;;2.30;99.90;;;;;;6139435;23;20328;-37
2024/01/07 03:50:45;;;;;;;14.15;10.57;;;2.30;99.90;;;;;;6139748;23;20021;-37
2024/01/07 03:53:11;;;;;;;13.35;10.30;;;2.30;99.90;;;;;;6138812;23;20775;-37
2024/01/07 03:55:37;;;;;;;15.10;11.27;;;2.30;99.90;;;;;;6139075;23;20087;-36
2024/01/07 03:58:04;;;;;;;15.15;10.98;;;2.30;99.90;;;;;;6138397;23;20029;-37
2024/01/07 04:00:29;;;;;;;14.43;10.93;;;2.30;99.90;;;;;;6139293;23;20348;-36
2024/01/07 04:02:55;;;;;;;14.98;11.13;;;2.30;99.90;;;;;;6139311;23;20603;-37
2024/01/07 04:05:20;;;;;;;15.38;11.40;;;2.30;99.90;;;;;;6138129;23;20025;-42
2024/01/07 04:07:46;;;;;;;16.85;11.48;;;2.30;99.90;;;;;;6139324;23;20009;-36
2024/01/07 04:10:12;;;;;;;16.27;12.10;;;2.30;99.90;;;;;;6138008;23;20093;-37
2024/01/07 04:12:41;;;;;;;17.23;12.38;;;2.20;99.90;;;;;;6137315;23;20013;-37
2024/01/07 04:15:07;;;;;;;15.77;11.98;;;2.20;99.90;;;;;;6139072;23;20051;-37
2024/01/07 04:17:32;;;;;;;15.20;11.50;;;2.20;99.90;;;;;;6139282;23;20115;-38
2024/01/07 04:19:58;;;;;;;16.40;12.98;;;2.20;99.90;;;;;;6137517;23;20040;-39
2024/01/07 04:22:23;;;;;;;17.17;12.32;;;2.20;99.90;;;;;;6140096;23;20005;-36
2024/01/07 04:24:49;;;;;;;18.98;13.98;;;2.20;99.90;;;;;;6140283;23;20032;-37
2024/01/07 04:27:15;;;;;;;16.80;12.30;;;2.20;99.90;;;;;;6138210;23;20056;-38
2024/01/07 04:29:40;;;;;;;15.82;12.32;;;2.20;99.90;;;;;;6139840;23;20013;-37
2024/01/07 04:32:06;;;;;;;18.30;12.63;;;2.20;99.90;;;;;;6140532;23;20020;-37
2024/01/07 04:34:34;;;;;;;15.85;11.82;;;2.10;99.90;;;;;;6112833;23;20103;-37
2024/01/07 04:37:00;;;;;;;18.90;13.88;;;2.10;99.90;;;;;;6139996;23;20018;-38
2024/01/07 04:39:26;;;;;;;18.90;13.57;;;2.10;99.90;;;;;;6139785;23;20055;-38
2024/01/07 04:41:52;;;;;;;17.70;13.65;;;2.10;99.90;;;;;;6139591;23;20002;-37
2024/01/07 04:44:17;;;;;;;16.67;12.20;;;2.10;99.90;;;;;;6139554;23;20010;-38
2024/01/07 04:46:43;;;;;;;18.75;13.15;;;2.10;99.90;;;;;;6140579;23;20009;-37
2024/01/07 04:49:08;;;;;;;17.58;12.43;;;2.10;99.90;;;;;;6138773;23;20009;-37
2024/01/07 04:51:34;;;;;;;17.35;11.70;;;2.10;99.90;;;;;;6138850;23;20040;-36
2024/01/07 04:53:59;;;;;;;16.98;11.77;;;2.10;99.90;;;;;;6138933;23;20013;-36
2024/01/07 04:56:25;;;;;;;14.10;11.13;;;2.10;99.90;;;;;;6140145;23;20871;-37
2024/01/07 04:58:50;;;;;;;16.45;12.07;;;2.10;99.90;;;;;;6140557;23;20009;-37
2024/01/07 05:01:16;;;;;;;17.02;12.38;;;2.10;99.90;;;;;;6139074;23;20002;-36
2024/01/07 05:03:42;;;;;;;16.92;11.38;;;2.10;99.90;;;;;;6139714;23;20492;-37
2024/01/07 05:06:13;;;;;;;15.18;11.88;;;2.10;99.90;;;;;;6139143;23;20020;-37
2024/01/07 05:08:40;;;;;;;15.70;11.98;;;2.10;99.90;;;;;;6138266;23;20044;-36
2024/01/07 05:11:06;;;;;;;17.33;13.27;;;2.10;99.90;;;;;;6138682;23;20135;-37
2024/01/07 05:13:32;;;;;;;18.15;12.73;;;2.10;99.90;;;;;;6138710;23;20349;-37
2024/01/07 05:15:57;;;;;;;19.10;13.52;;;2.10;99.90;;;;;;6138398;23;20012;-36
2024/01/07 05:18:24;;;;;;;16.45;12.88;;;2.10;99.90;;;;;;6139751;23;20001;-38
2024/01/07 05:20:50;;;;;;;15.77;12.07;;;2.10;99.90;;;;;;6139103;23;20721;-36
2024/01/07 05:23:16;;;;;;;15.15;12.25;;;2.10;99.90;;;;;;6137708;23;20740;-37
2024/01/07 05:25:43;;;;;;;16.13;12.18;;;2.10;99.90;;;;;;6140255;23;20006;-37
2024/01/07 05:28:09;;;;;;;15.07;12.27;;;2.10;99.90;;;;;;6139830;23;20013;-37
2024/01/07 05:30:35;;;;;;;14.38;11.20;;;2.10;99.90;;;;;;6139909;23;20025;-37
2024/01/07 05:33:00;;;;;;;13.52;11.15;;;2.10;99.90;;;;;;6140910;23;20184;-36
2024/01/07 05:35:27;;;;;;;16.48;11.80;;;2.10;99.90;;;;;;6141266;23;20013;-37
2024/01/07 05:37:52;;;;;;;16.35;12.00;;;2.10;99.90;;;;;;6139726;23;20011;-37
2024/01/07 05:40:18;;;;;;;15.88;12.90;;;2.10;99.90;;;;;;6140288;23;20005;-37
2024/01/07 05:42:43;;;;;;;15.90;12.75;;;2.00;99.90;;;;;;6141206;23;20095;-37
2024/01/07 05:45:09;;;;;;;15.48;12.50;;;2.00;99.90;;;;;;6139809;23;20013;-37
2024/01/07 05:47:35;;;;;;;15.25;12.05;;;2.00;99.90;;;;;;6140892;23;20016;-36
2024/01/07 05:50:04;;;;;;;17.35;12.93;;;2.00;99.90;;;;;;6141841;23;20037;-36
2024/01/07 05:52:30;;;;;;;14.70;11.25;;;2.00;99.90;;;;;;6140478;23;20009;-37
2024/01/07 05:54:55;;;;;;;13.45;11.02;;;2.00;99.90;;;;;;6140987;23;20006;-37
2024/01/07 05:57:24;;;;;;;15.27;11.60;;;2.00;99.90;;;;;;6140607;23;20041;-36
2024/01/07 05:59:52;;;;;;;16.58;12.18;;;2.00;99.90;;;;;;6141316;23;20005;-36
2024/01/07 06:02:22;;;;;;;13.85;11.35;;;2.00;99.90;;;;;;6138959;23;20033;-37
2024/01/07 06:04:48;;;;;;;13.20;10.68;;;2.00;99.90;;;;;;6140330;23;20013;-37
2024/01/07 06:07:16;;;;;;;12.60;10.57;;;2.00;99.90;;;;;;6140005;23;20064;-38
2024/01/07 06:09:42;;;;;;;13.57;10.82;;;2.00;99.90;;;;;;6140885;23;20029;-37
2024/01/07 06:12:08;;;;;;;13.73;10.93;;;2.00;99.90;;;;;;6138606;23;20287;-38
2024/01/07 06:14:33;;;;;;;13.82;12.20;;;2.00;99.90;;;;;;6141065;23;20012;-36
2024/01/07 06:16:59;;;;;;;14.68;12.32;;;2.00;99.90;;;;;;6140938;23;20381;-37
2024/01/07 06:19:24;;;;;;;15.45;11.80;;;2.00;99.90;;;;;;6140966;23;20440;-38
2024/01/07 06:21:50;;;;;;;15.02;12.20;;;2.00;99.90;;;;;;6142371;23;20080;-38
2024/01/07 06:24:15;;;;;;;14.55;11.60;;;2.00;99.90;;;;;;6141044;23;20032;-36
2024/01/07 06:26:41;;;;;;;14.63;11.07;;;2.00;99.90;;;;;;6140644;23;20012;-37
2024/01/07 06:29:09;;;;;;;13.60;10.73;;;2.00;99.90;;;;;;6140715;23;20002;-38
2024/01/07 06:31:35;;;;;;;13.27;10.52;;;2.00;99.90;;;;;;6140430;23;20091;-43
2024/01/07 06:34:01;;;;;;;13.25;10.13;;;2.00;99.90;;;;;;6139345;23;20674;-35
2024/01/07 06:36:26;;;;;;;11.85;10.15;;;2.00;99.90;;;;;;6139873;23;20009;-36
2024/01/07 06:38:52;;;;;;;13.70;10.77;;;2.00;99.90;;;;;;6140618;23;20310;-38
2024/01/07 06:41:18;;;;;;;16.10;11.55;;;2.00;99.90;;;;;;6138725;23;20777;-37
2024/01/07 06:43:44;;;;;;;16.35;11.98;;;2.00;99.90;;;;;;6141208;23;20008;-38
2024/01/07 06:46:10;;;;;;;15.35;11.75;;;2.00;99.90;;;;;;6139823;23;20032;-37
2024/01/07 06:48:35;;;;;;;15.63;11.90;;;2.00;99.90;;;;;;6139923;23;20009;-39
2024/01/07 06:51:01;;;;;;;16.92;12.25;;;2.00;99.90;;;;;;6139809;23;20357;-38
2024/01/07 06:53:26;;;;;;;15.27;11.07;;;2.00;99.90;;;;;;6139533;23;20010;-37
2024/01/07 06:55:52;;;;;;;15.50;10.88;;;1.90;99.90;;;;;;6139489;23;20017;-38
2024/01/07 06:58:18;;;;;;;15.60;11.63;;;1.90;99.90;;;;;;6140100;23;20008;-38
2024/01/07 07:00:44;;;;;;;17.38;13.00;;;1.90;99.90;;;;;;6138892;23;20798;-37
2024/01/07 07:03:12;;;;;;;16.25;13.18;;;1.90;99.90;;;;;;6139505;23;20009;-37
2024/01/07 07:05:38;;;;;;;15.73;12.55;;;1.90;99.90;;;;;;6138809;23;20044;-37
2024/01/07 07:08:04;;;;;;;17.42;12.43;;;1.80;99.90;;;;;;6138878;23;20488;-37
2024/01/07 07:10:31;;;;;;;14.75;11.73;;;1.80;99.90;;;;;;6139616;23;20025;-37
2024/01/07 07:12:57;;;;;;;17.65;12.55;;;1.80;99.90;;;;;;6138860;23;20008;-36
2024/01/07 07:15:22;;;;;;;16.65;12.45;;;1.80;99.90;;;;;;6138514;23;20009;-37
2024/01/07 07:17:49;;;;;;;15.00;12.15;;;1.80;99.90;;;;;;6139932;23;20029;-37
2024/01/07 07:20:15;;;;;;;17.73;14.02;;;1.80;99.90;;;;;;6138840;23;20009;-37
2024/01/07 07:22:41;;;;;;;15.27;12.05;;;1.80;99.90;;;;;;6138476;23;20340;-37
2024/01/07 07:25:07;;;;;;;14.93;12.00;;;1.80;99.90;;;;;;6139893;23;20005;-37
2024/01/07 07:27:32;;;;;;;15.25;12.00;;;1.80;99.90;;;;;;6139762;23;20024;-37
2024/01/07 07:29:58;;;;;;;13.23;10.85;;;1.80;99.90;;;;;;6138685;23;20001;-36
2024/01/07 07:32:23;;;;;;;15.00;10.98;;;1.80;99.90;;;;;;6139917;23;20607;-36
2024/01/07 07:34:49;;;;;;;14.63;11.38;;;1.80;99.90;;;;;;6141265;23;20369;-37
2024/01/07 07:37:14;;;;;;;14.73;11.30;;;1.80;99.90;;;;;;6138671;23;20013;-37
2024/01/07 07:39:40;;;;;;;15.93;10.45;;;1.80;99.90;;;;;;6139893;23;20085;-37
2024/01/07 07:42:06;;;;;;;14.27;12.05;;;1.80;99.90;;;;;;6139644;23;20005;-36
2024/01/07 07:44:31;;;;;;;13.70;11.40;;;1.80;99.90;;;;;;6138761;23;20013;-36
2024/01/07 07:46:57;;;;;;;13.23;10.52;;;1.80;99.90;;;;;;6139389;23;20005;-36
2024/01/07 07:49:22;;;;;;;15.65;10.65;;;1.80;99.90;;;;;;6139017;23;20010;-37
2024/01/07 07:51:48;;;;;;;11.05;9.80;;;1.80;99.90;;;;;;6138815;23;20357;-38
2024/01/07 07:54:14;;;;;;;13.80;11.32;;;1.80;99.90;;;;;;6139728;23;20698;-36
2024/01/07 07:56:39;;;;;;;14.38;11.07;;;1.80;99.90;;;;;;6140072;23;20005;-37
2024/01/07 07:59:05;;;;;;;11.48;10.15;;;1.80;99.90;;;;;;6138737;23;20005;-36
2024/01/07 08:01:30;;;;;;;12.57;10.50;;;1.80;99.90;;;;;;6139517;23;20025;-37
2024/01/07 08:03:56;;;;;;;13.27;10.52;;;1.90;99.90;;;;;;6137967;23;20017;-36
2024/01/07 08:06:22;;;;;;;13.73;11.32;;;1.80;99.90;;;;;;6139425;23;20009;-37
2024/01/07 08:08:48;;;;;;;16.90;12.52;;;1.80;99.90;;;;;;6139820;23;20060;-36
2024/01/07 08:11:13;;;;;;;13.23;11.45;;;1.80;99.90;;;;;;6137762;23;20022;-36
2024/01/07 08:13:39;;;;;;;14.05;11.13;;;1.80;99.90;;;;;;6138888;23;20006;-36
2024/01/07 08:16:10;;;;;;;13.45;10.77;;;1.70;99.90;;;;;;6138837;23;20052;-36
2024/01/07 08:18:35;;;;;;;12.65;9.80;;;1.80;99.90;;;;;;6138713;23;20010;-35
2024/01/07 08:21:01;;;;;;;12.55;10.70;;;1.70;99.90;;;;;;6139113;23;20040;-36
2024/01/07 08:23:27;;;;;;;11.23;9.40;;;1.70;99.90;;;;;;6138972;23;20078;-37
2024/01/07 08:25:52;;;;;;;10.55;9.00;;;1.70;99.90;;;;;;6137639;23;20010;-37
2024/01/07 08:28:18;;;;;;;9.77;8.52;;;1.70;99.90;;;;;;6138901;23;20009;-37
2024/01/07 08:30:44;;;;;;;9.90;8.80;;;1.70;99.90;;;;;;6139988;23;20152;-35
2024/01/07 08:33:10;;;;;;;9.65;8.40;;;1.70;99.90;;;;;;6138350;23;20889;-37
2024/01/07 08:35:36;;;;;;;9.10;8.20;;;1.70;99.90;;;;;;6140043;23;20014;-37
2024/01/07 08:38:01;;;;;;;8.82;7.72;;;1.60;99.90;;;;;;6137598;23;20015;-37
2024/01/07 08:40:27;;;;;;;9.07;8.02;;;1.60;99.90;;;;;;6137971;23;20064;-37
2024/01/07 08:42:52;;;;;;;9.23;7.57;;;1.60;99.90;;;;;;6139940;23;20017;-37
2024/01/07 08:45:18;;;;;;;8.98;7.75;;;1.60;99.90;;;;;;6139026;23;20009;-36
2024/01/07 08:47:44;;;;;;;9.32;8.20;;;1.60;99.90;;;;;;6138929;23;20009;-36
2024/01/07 08:50:10;;;;;;;10.40;8.10;;;1.60;99.90;;;;;;6138057;23;20013;-40
2024/01/07 08:52:35;;;;;;;9.52;7.90;;;1.60;99.90;;;;;;6139665;23;20096;-37
2024/01/07 08:55:02;;;;;;;9.48;8.35;;;1.60;99.90;;;;;;6138372;23;20667;-37
2024/01/07 08:57:28;;;;;;;10.07;8.95;;;1.60;99.90;;;;;;6139283;23;20060;-38
2024/01/07 08:59:53;;;;;;;11.90;9.38;;;1.60;99.90;;;;;;6140531;23;20028;-37
2024/01/07 09:02:19;;;;;;;10.43;9.23;;;1.60;99.90;;;;;;6139638;23;20009;-36
2024/01/07 09:04:44;;;;;;;11.02;8.98;;;1.60;99.90;;;;;;6140205;23;20017;-42
2024/01/07 09:07:10;;;;;;;11.07;9.43;;;1.60;99.90;;;;;;6140054;23;20012;-36
2024/01/07 09:09:36;;;;;;;12.20;8.98;;;1.50;99.90;;;;;;6142087;23;20008;-37
2024/01/07 09:12:03;;;;;;;10.38;8.70;;;1.50;99.90;;;;;;6141011;23;20044;-37
2024/01/07 09:14:29;;;;;;;9.05;8.05;;;1.60;99.90;;;;;;6139638;23;20821;-37
2024/01/07 09:16:55;;;;;;;9.43;8.43;;;1.50;99.90;;;;;;6141652;23;20021;-37
2024/01/07 09:19:21;;;;;;;10.02;8.77;;;1.60;99.90;;;;;;6140416;23;20774;-36
2024/01/07 09:21:46;;;;;;;10.82;8.60;;;1.60;99.90;;;;;;6140906;23;20017;-38
2024/01/07 09:24:15;;;;;;;10.70;7.70;;;1.60;99.90;;;;;;6140239;23;20002;-36
2024/01/07 09:26:40;;;;;;;10.07;8.73;;;1.60;99.90;;;;;;6141042;23;20006;-36
2024/01/07 09:29:06;;;;;;;11.10;9.07;;;1.60;99.90;;;;;;6140900;23;20400;-36
2024/01/07 09:31:32;;;;;;;10.90;8.82;;;1.60;99.90;;;;;;6141580;23;20022;-37
2024/01/07 09:33:57;;;;;;;10.35;8.32;;;1.60;99.90;;;;;;6141362;23;20015;-37
2024/01/07 09:36:23;;;;;;;10.48;8.45;;;1.60;99.90;;;;;;6142359;23;20009;-37
2024/01/07 09:38:48;;;;;;;12.60;8.93;;;1.60;99.90;;;;;;6141316;23;20083;-36
2024/01/07 09:41:14;;;;;;;10.60;8.18;;;1.60;99.90;;;;;;6141238;23;20008;-39
2024/01/07 09:43:40;;;;;;;11.02;8.25;;;1.60;99.90;;;;;;6141761;23;20009;-37
2024/01/07 09:46:05;;;;;;;12.55;9.23;;;1.60;99.90;;;;;;6141240;23;20013;-37
2024/01/07 09:48:32;;;;;;;13.32;8.82;;;1.60;99.90;;;;;;6141553;23;20093;-36
2024/01/07 09:51:00;;;;;;;11.20;8.75;;;1.60;99.90;;;;;;6140458;23;20014;-37
2024/01/07 09:53:33;;;;;;;10.00;7.70;;;1.60;99.90;;;;;;6141119;23;20041;-37
2024/01/07 09:56:22;;;;;;;;;;;1.60;99.90;;;;;;6142203;23;20053;-46
2024/01/07 09:58:50;;;;;;;7.55;6.18;;;1.70;99.90;;;;;;6129378;23;19905;-37
2024/01/07 10:01:17;;;;;;;9.57;7.45;;;1.70;99.90;;;;;;6140869;23;20014;-37
2024/01/07 10:03:43;;;;;;;13.00;8.38;;;1.70;99.90;;;;;;6140038;23;20008;-38
2024/01/07 10:06:17;;;;;;;9.07;7.47;;;1.70;99.90;;;;;;6139816;23;20013;-37
2024/01/07 10:08:46;;;;;;;9.68;7.80;;;1.60;99.90;;;;;;6139309;23;20012;-36
2024/01/07 10:11:14;;;;;;;10.63;7.82;;;1.70;99.90;;;;;;6138069;23;20013;-37
2024/01/07 10:13:39;;;;;;;10.57;7.28;;;1.70;99.90;;;;;;6139324;23;20428;-37
2024/01/07 10:16:08;;;;;;;9.07;6.63;;;1.70;99.90;;;;;;6138919;23;20021;-37
2024/01/07 10:18:34;;;;;;;11.60;7.70;;;1.70;99.90;;;;;;6139348;23;20005;-38
2024/01/07 10:21:06;;;;;;;8.25;6.82;;;1.70;99.90;;;;;;6140238;23;20087;-38
2024/01/07 10:23:31;;;;;;;8.73;6.75;;;1.70;99.90;;;;;;6138196;23;20038;-37
2024/01/07 10:25:58;;;;;;;8.93;7.45;;;1.70;99.90;;;;;;6138041;23;20005;-38
2024/01/07 10:28:23;;;;;;;10.23;7.65;;;1.70;99.90;;;;;;6138492;23;20008;-37
2024/01/07 10:30:50;;;;;;;9.48;6.60;;;1.70;99.90;;;;;;6139649;23;20696;-37
2024/01/07 10:33:19;;;;;;;8.02;6.72;;;1.70;99.90;;;;;;6137315;23;20020;-37
2024/01/07 10:35:55;;;;;;;7.28;5.97;;;1.80;99.90;;;;;;6138876;23;20008;-37
2024/01/07 10:38:23;;;;;;;10.55;6.53;;;1.80;99.90;;;;;;6138011;23;20068;-37
2024/01/07 10:40:54;;;;;;;7.97;6.13;;;1.80;99.90;;;;;;6137461;23;20531;-37
2024/01/07 10:43:20;;;;;;;7.25;6.35;;;1.80;99.90;;;;;;6138122;23;20009;-36
2024/01/07 10:45:50;;;;;;;7.90;6.55;;;1.80;99.90;;;;;;6137981;23;20698;-37
2024/01/07 10:48:20;;;;;;;6.55;5.47;;;1.70;99.90;;;;;;6138992;23;20441;-37
2024/01/07 10:50:51;;;;;;;8.25;6.25;;;1.70;99.90;;;;;;6138548;23;20016;-39
2024/01/07 10:53:27;;;;;;;7.22;5.93;;;1.80;99.90;;;;;;6137241;23;20010;-37
2024/01/07 10:55:59;;;;;;;8.05;6.13;;;1.80;99.90;;;;;;6139350;23;20012;-37
2024/01/07 10:58:25;;;;;;;7.97;6.28;;;1.80;99.90;;;;;;6140539;23;20010;-37
2024/01/07 11:00:52;;;;;;;9.32;5.75;;;1.80;99.90;;;;;;6138884;23;20037;-37
2024/01/07 11:06:33;;;;;;;7.18;6.00;;;1.80;99.90;;;;;;5117612;27;20422;-37
2024/01/07 11:09:05;;;;;;;6.30;5.25;;;1.80;99.90;;;;;;5116579;28;20083;-38
2024/01/07 11:11:38;;;;;;;6.05;4.80;;;1.80;99.90;;;;;;5117240;28;20035;-38
2024/01/07 11:14:04;;;;;;;5.93;4.95;;;1.80;99.90;;;;;;5116577;28;20677;-37
2024/01/07 11:16:38;;;;;;;8.90;5.57;;;1.80;99.90;;;;;;5118107;28;20452;-37
2024/01/07 11:19:04;;;;;;;6.75;5.30;;;1.80;99.90;;;;;;5117359;28;20031;-37
2024/01/07 11:21:30;;;;;;;6.50;5.65;;;1.80;99.90;;;;;;5116281;28;20034;-38
2024/01/07 11:23:56;;;;;;;7.03;5.95;;;1.80;99.90;;;;;;5116876;28;20117;-37
2024/01/07 11:26:22;;;;;;;5.68;5.07;;;1.80;99.90;;;;;;5117938;28;20565;-38
2024/01/07 11:28:57;;;;;;;6.20;5.10;;;1.80;99.90;;;;;;5117659;28;20474;-37
2024/01/07 11:31:42;;;;;;;7.50;5.03;;;1.90;99.90;;;;;;5117759;28;20019;-39
2024/01/07 11:34:08;;;;;;;5.95;4.70;;;1.90;99.90;;;;;;5117176;27;20911;-38
2024/01/07 11:36:37;;;;;;;6.18;5.03;;;1.90;99.90;;;;;;5116650;28;20110;-38
2024/01/07 11:39:06;;;;;;;6.80;4.97;;;1.90;99.90;;;;;;5117124;28;20074;-38
2024/01/07 11:41:33;;;;;;;5.60;4.93;;;1.90;99.90;;;;;;5116345;28;20039;-38
2024/01/07 11:44:00;;;;;;;5.20;4.43;;;1.90;99.90;;;;;;5116430;28;20084;-38
2024/01/07 11:46:27;;;;;;;5.25;4.47;;;1.80;99.90;;;;;;5116537;28;20024;-37
2024/01/07 11:48:58;;;;;;;6.75;4.22;;;1.70;99.90;;;;;;5095646;28;20558;-37
2024/01/07 11:51:28;;;;;;;5.40;4.07;;;1.70;99.90;;;;;;5110676;28;20019;-37
2024/01/07 11:53:55;;;;;;;6.93;4.30;;;1.60;99.90;;;;;;5116963;28;20020;-37
2024/01/07 11:56:21;;;;;;;4.85;3.72;;;1.60;99.90;;;;;;5116048;28;20072;-37
2024/01/07 11:58:46;;;;;;;4.85;3.60;;;1.60;99.90;;;;;;5117301;27;20022;-37
2024/01/07 12:01:16;;;;;;;3.83;3.38;;;1.60;99.90;;;;;;5115926;27;20019;-38
2024/01/07 12:03:43;;;;;;;4.32;3.10;;;1.60;99.90;;;;;;5116411;28;20075;-37
2024/01/07 12:06:13;;;;;;;6.07;3.67;;;1.60;99.90;;;;;;5116359;28;20026;-37
2024/01/07 12:08:48;;;;;;;4.05;3.33;;;1.70;99.90;;;;;;5117229;27;20048;-37
2024/01/07 12:11:14;;;;;;;3.70;3.30;;;1.60;99.90;;;;;;5115056;28;20025;-37
2024/01/07 12:13:41;;;;;;;3.33;2.70;;;1.70;99.90;;;;;;5116265;28;20035;-38
2024/01/07 12:16:11;;;;;;;3.28;2.97;;;1.70;99.90;;;;;;5110443;28;20019;-37
2024/01/07 12:18:37;;;;;;;3.90;2.88;;;1.70;99.90;;;;;;5091072;28;20948;-37
2024/01/07 12:21:03;;;;;;;4.47;3.55;;;1.80;99.90;;;;;;5102118;28;20051;-38
2024/01/07 12:23:35;;;;;;;5.38;4.10;;;1.80;99.90;;;;;;5102348;28;20126;-38
2024/01/07 12:26:08;;;;;;;3.47;3.17;;;1.80;99.90;;;;;;5101930;28;20038;-38
2024/01/07 12:28:34;;;;;;;3.72;2.90;;;1.80;99.90;;;;;;5100767;28;20043;-39
2024/01/07 12:31:01;;;;;;;3.28;2.80;;;1.80;99.90;;;;;;5101720;28;20162;-38
2024/01/07 12:33:29;;;;;;;5.50;3.05;;;1.80;99.90;;;;;;5101534;28;20529;-38
2024/01/07 12:35:55;;;;;;;4.60;2.90;;;1.80;99.90;;;;;;5103326;28;20553;-37
2024/01/07 12:38:29;;;;;;;3.55;2.50;;;1.80;99.90;;;;;;5101332;28;20043;-38
2024/01/07 12:40:56;;;;;;;3.00;2.25;;;1.80;99.90;;;;;;5102362;28;20030;-38
2024/01/07 12:43:22;;;;;;;5.97;2.35;;;1.80;99.90;;;;;;5101628;28;20023;-37